sensor_id;sensor_type;location;lat;lon;timestamp;pressure;altitude;pressure_sealevel;temperature;humidity
52535;BME280;38443;53.164;5.802;2023-04-28T00:01:13;101774.13;;;5.16;100.00
52535;BME280;38443;53.164;5.802;2023-04-28T00:03:39;101767.94;;;5.16;100.00
52535;BME280;38443;53.164;5.802;2023-04-28T00:06:04;101766.16;;;5.15;100.00
52535;BME280;38443;53.164;5.802;2023-04-28T00:08:30;101773.22;;;5.14;100.00
52535;BME280;38443;53.164;5.802;2023-04-28T00:10:55;101758.19;;;5.13;100.00
52535;BME280;38443;53.164;5.802;2023-04-28T00:13:20;101760.84;;;5.13;100.00
52535;BME280;38443;53.164;5.802;2023-04-28T00:15:46;101759.91;;;5.08;100.00
52535;BME280;38443;53.164;5.802;2023-04-28T00:18:11;101763.50;;;5.12;100.00
52535;BME280;38443;53.164;5.802;2023-04-28T00:20:36;101756.38;;;5.11;100.00
52535;BME280;38443;53.164;5.802;2023-04-28T00:23:01;101751.97;;;5.10;100.00
52535;BME280;38443;53.164;5.802;2023-04-28T00:25:27;101742.22;;;5.07;100.00
52535;BME280;38443;53.164;5.802;2023-04-28T00:27:52;101738.69;;;5.05;100.00
52535;BME280;38443;53.164;5.802;2023-04-28T00:30:17;101746.63;;;5.04;100.00
52535;BME280;38443;53.164;5.802;2023-04-28T00:32:42;101741.31;;;5.04;100.00
52535;BME280;38443;53.164;5.802;2023-04-28T00:35:08;101745.72;;;5.02;100.00
52535;BME280;38443;53.164;5.802;2023-04-28T00:37:37;101745.72;;;5.02;100.00
52535;BME280;38443;53.164;5.802;2023-04-28T00:40:03;101743.03;;;5.00;100.00
52535;BME280;38443;53.164;5.802;2023-04-28T00:42:28;101737.72;;;4.98;100.00
52535;BME280;38443;53.164;5.802;2023-04-28T00:44:54;101731.50;;;4.96;100.00
52535;BME280;38443;53.164;5.802;2023-04-28T00:47:19;101727.94;;;4.93;100.00
52535;BME280;38443;53.164;5.802;2023-04-28T00:49:45;101715.56;;;4.92;100.00
52535;BME280;38443;53.164;5.802;2023-04-28T00:52:14;101706.72;;;4.91;100.00
52535;BME280;38443;53.164;5.802;2023-04-28T00:54:39;101701.38;;;4.87;100.00
52535;BME280;38443;53.164;5.802;2023-04-28T00:57:05;101696.06;;;4.85;100.00
52535;BME280;38443;53.164;5.802;2023-04-28T00:59:31;101689.00;;;4.86;100.00
52535;BME280;38443;53.164;5.802;2023-04-28T01:01:57;101677.50;;;4.85;100.00
52535;BME280;38443;53.164;5.802;2023-04-28T01:04:24;101673.09;;;4.86;100.00
52535;BME280;38443;53.164;5.802;2023-04-28T01:06:51;101673.97;;;4.86;100.00
52535;BME280;38443;53.164;5.802;2023-04-28T01:09:16;101673.06;;;4.84;100.00
52535;BME280;38443;53.164;5.802;2023-04-28T01:11:42;101668.66;;;4.86;100.00
52535;BME280;38443;53.164;5.802;2023-04-28T01:14:07;101656.28;;;4.85;100.00
52535;BME280;38443;53.164;5.802;2023-04-28T01:16:33;101666.03;;;4.88;100.00
52535;BME280;38443;53.164;5.802;2023-04-28T01:19:00;101669.56;;;4.88;100.00
52535;BME280;38443;53.164;5.802;2023-04-28T01:21:31;101673.06;;;4.84;100.00
52535;BME280;38443;53.164;5.802;2023-04-28T01:23:57;101667.78;;;4.86;100.00
52535;BME280;38443;53.164;5.802;2023-04-28T01:26:23;101660.69;;;4.82;100.00
52535;BME280;38443;53.164;5.802;2023-04-28T01:28:48;101654.47;;;4.81;100.00
52535;BME280;38443;53.164;5.802;2023-04-28T01:31:13;101657.97;;;4.77;100.00
52535;BME280;38443;53.164;5.802;2023-04-28T01:33:39;101655.31;;;4.77;100.00
52535;BME280;38443;53.164;5.802;2023-04-28T01:36:04;101661.50;;;4.76;100.00
52535;BME280;38443;53.164;5.802;2023-04-28T01:38:29;101659.75;;;4.76;100.00
52535;BME280;38443;53.164;5.802;2023-04-28T01:40:55;101645.56;;;4.73;100.00
52535;BME280;38443;53.164;5.802;2023-04-28T01:43:20;101642.03;;;4.74;100.00
52535;BME280;38443;53.164;5.802;2023-04-28T01:45:45;101637.63;;;4.71;100.00
52535;BME280;38443;53.164;5.802;2023-04-28T01:48:11;101645.56;;;4.70;100.00
52535;BME280;38443;53.164;5.802;2023-04-28T01:50:36;101639.34;;;4.68;100.00
52535;BME280;38443;53.164;5.802;2023-04-28T01:53:01;101634.91;;;4.67;100.00
52535;BME280;38443;53.164;5.802;2023-04-28T01:55:26;101624.31;;;4.67;100.00
52535;BME280;38443;53.164;5.802;2023-04-28T01:57:51;101631.38;;;4.66;100.00
52535;BME280;38443;53.164;5.802;2023-04-28T02:00:17;101626.94;;;4.64;100.00
52535;BME280;38443;53.164;5.802;2023-04-28T02:02:42;101616.31;;;4.62;100.00
52535;BME280;38443;53.164;5.802;2023-04-28T02:05:07;101603.94;;;4.63;100.00
52535;BME280;38443;53.164;5.802;2023-04-28T02:07:33;101609.28;;;4.64;100.00
52535;BME280;38443;53.164;5.802;2023-04-28T02:09:58;101604.00;;;4.67;100.00
52535;BME280;38443;53.164;5.802;2023-04-28T02:12:23;101610.19;;;4.69;100.00
52535;BME280;38443;53.164;5.802;2023-04-28T02:14:48;101604.91;;;4.69;100.00
52535;BME280;38443;53.164;5.802;2023-04-28T02:17:15;101598.72;;;4.72;100.00
52535;BME280;38443;53.164;5.802;2023-04-28T02:19:40;101588.09;;;4.70;100.00
52535;BME280;38443;53.164;5.802;2023-04-28T02:22:05;101583.69;;;4.72;100.00
52535;BME280;38443;53.164;5.802;2023-04-28T02:24:33;101585.44;;;4.70;100.00
52535;BME280;38443;53.164;5.802;2023-04-28T02:26:58;101583.69;;;4.72;100.00
52535;BME280;38443;53.164;5.802;2023-04-28T02:29:25;101570.44;;;4.74;100.00
52535;BME280;38443;53.164;5.802;2023-04-28T02:31:50;101568.69;;;4.74;100.00
52535;BME280;38443;53.164;5.802;2023-04-28T02:34:15;101569.56;;;4.75;100.00
52535;BME280;38443;53.164;5.802;2023-04-28T02:36:41;101564.28;;;4.78;100.00
52535;BME280;38443;53.164;5.802;2023-04-28T02:39:06;101568.72;;;4.77;100.00
52535;BME280;38443;53.164;5.802;2023-04-28T02:41:31;101566.94;;;4.78;100.00
52535;BME280;38443;53.164;5.802;2023-04-28T02:43:58;101554.56;;;4.78;100.00
52535;BME280;38443;53.164;5.802;2023-04-28T02:46:23;101558.09;;;4.79;100.00
52535;BME280;38443;53.164;5.802;2023-04-28T02:48:49;101545.72;;;4.79;100.00
52535;BME280;38443;53.164;5.802;2023-04-28T02:51:14;101543.06;;;4.78;100.00
52535;BME280;38443;53.164;5.802;2023-04-28T02:53:39;101536.88;;;4.77;100.00
52535;BME280;38443;53.164;5.802;2023-04-28T02:56:05;101545.69;;;4.76;100.00
52535;BME280;38443;53.164;5.802;2023-04-28T02:58:30;101531.56;;;4.74;100.00
52535;BME280;38443;53.164;5.802;2023-04-28T03:00:56;101533.28;;;4.71;100.00
52535;BME280;38443;53.164;5.802;2023-04-28T03:03:21;101526.25;;;4.71;100.00
52535;BME280;38443;53.164;5.802;2023-04-28T03:05:46;101536.84;;;4.70;100.00
52535;BME280;38443;53.164;5.802;2023-04-28T03:08:11;101531.56;;;4.71;100.00
52535;BME280;38443;53.164;5.802;2023-04-28T03:10:36;101537.72;;;4.70;100.00
52535;BME280;38443;53.164;5.802;2023-04-28T03:13:02;101534.19;;;4.71;100.00
52535;BME280;38443;53.164;5.802;2023-04-28T03:15:27;101524.44;;;4.70;100.00
52535;BME280;38443;53.164;5.802;2023-04-28T03:17:52;101509.44;;;4.71;100.00
52535;BME280;38443;53.164;5.802;2023-04-28T03:20:17;101512.06;;;4.71;100.00
52535;BME280;38443;53.164;5.802;2023-04-28T03:22:43;101509.44;;;4.71;100.00
52535;BME280;38443;53.164;5.802;2023-04-28T03:25:08;101508.53;;;4.70;100.00
52535;BME280;38443;53.164;5.802;2023-04-28T03:27:33;101499.72;;;4.73;100.00
52535;BME280;38443;53.164;5.802;2023-04-28T03:29:59;101491.78;;;4.76;100.00
52535;BME280;38443;53.164;5.802;2023-04-28T03:32:24;101484.72;;;4.76;100.00
52535;BME280;38443;53.164;5.802;2023-04-28T03:34:49;101473.25;;;4.77;100.00
52535;BME280;38443;53.164;5.802;2023-04-28T03:37:15;101473.22;;;4.79;100.00
52535;BME280;38443;53.164;5.802;2023-04-28T03:39:40;101472.34;;;4.80;100.00
52535;BME280;38443;53.164;5.802;2023-04-28T03:42:05;101467.09;;;4.83;100.00
52535;BME280;38443;53.164;5.802;2023-04-28T03:44:31;101472.38;;;4.83;100.00
52535;BME280;38443;53.164;5.802;2023-04-28T03:46:56;101465.31;;;4.85;100.00
52535;BME280;38443;53.164;5.802;2023-04-28T03:49:21;101459.13;;;4.86;100.00
52535;BME280;38443;53.164;5.802;2023-04-28T03:51:47;101460.00;;;4.88;100.00
52535;BME280;38443;53.164;5.802;2023-04-28T03:54:12;101455.59;;;4.89;100.00
52535;BME280;38443;53.164;5.802;2023-04-28T03:56:37;101457.38;;;4.90;100.00
52535;BME280;38443;53.164;5.802;2023-04-28T03:59:03;101454.72;;;4.91;100.00
52535;BME280;38443;53.164;5.802;2023-04-28T04:01:28;101458.28;;;4.93;100.00
52535;BME280;38443;53.164;5.802;2023-04-28T04:03:54;101450.31;;;4.93;100.00
52535;BME280;38443;53.164;5.802;2023-04-28T04:06:20;101435.28;;;4.94;100.00
52535;BME280;38443;53.164;5.802;2023-04-28T04:08:46;101445.91;;;4.95;100.00
52535;BME280;38443;53.164;5.802;2023-04-28T04:11:11;101430.00;;;4.95;100.00
52535;BME280;38443;53.164;5.802;2023-04-28T04:13:37;101419.38;;;4.95;100.00
52535;BME280;38443;53.164;5.802;2023-04-28T04:16:02;101417.63;;;4.97;100.00
52535;BME280;38443;53.164;5.802;2023-04-28T04:18:27;101420.25;;;4.99;100.00
52535;BME280;38443;53.164;5.802;2023-04-28T04:20:53;101424.66;;;4.98;100.00
52535;BME280;38443;53.164;5.802;2023-04-28T04:23:20;101414.06;;;5.00;100.00
52535;BME280;38443;53.164;5.802;2023-04-28T04:25:45;101414.94;;;5.00;100.00
52535;BME280;38443;53.164;5.802;2023-04-28T04:28:11;101410.53;;;5.01;100.00
52535;BME280;38443;53.164;5.802;2023-04-28T04:30:36;101407.88;;;5.01;100.00
52535;BME280;38443;53.164;5.802;2023-04-28T04:33:01;101417.59;;;5.00;100.00
52535;BME280;38443;53.164;5.802;2023-04-28T04:35:26;101411.41;;;5.03;100.00
52535;BME280;38443;53.164;5.802;2023-04-28T04:37:52;101401.69;;;5.02;100.00
52535;BME280;38443;53.164;5.802;2023-04-28T04:40:17;101398.16;;;5.05;100.00
52535;BME280;38443;53.164;5.802;2023-04-28T04:42:42;101407.03;;;5.08;100.00
52535;BME280;38443;53.164;5.802;2023-04-28T04:45:08;101400.84;;;5.09;100.00
52535;BME280;38443;53.164;5.802;2023-04-28T04:47:33;101398.19;;;5.12;100.00
52535;BME280;38443;53.164;5.802;2023-04-28T04:49:58;101395.53;;;5.12;100.00
52535;BME280;38443;53.164;5.802;2023-04-28T04:52:24;101397.28;;;5.15;100.00
52535;BME280;38443;53.164;5.802;2023-04-28T04:54:49;101394.66;;;5.18;100.00
52535;BME280;38443;53.164;5.802;2023-04-28T04:57:14;101397.31;;;5.19;100.00
52535;BME280;38443;53.164;5.802;2023-04-28T04:59:40;101398.22;;;5.22;100.00
52535;BME280;38443;53.164;5.802;2023-04-28T05:02:05;101396.44;;;5.24;100.00
52535;BME280;38443;53.164;5.802;2023-04-28T05:04:30;101403.50;;;5.26;100.00
52535;BME280;38443;53.164;5.802;2023-04-28T05:06:56;101399.09;;;5.27;100.00
52535;BME280;38443;53.164;5.802;2023-04-28T05:09:21;101392.91;;;5.29;100.00
52535;BME280;38443;53.164;5.802;2023-04-28T05:11:47;101388.50;;;5.31;100.00
52535;BME280;38443;53.164;5.802;2023-04-28T05:14:13;101385.84;;;5.31;100.00
52535;BME280;38443;53.164;5.802;2023-04-28T05:16:38;101386.69;;;5.35;100.00
52535;BME280;38443;53.164;5.802;2023-04-28T05:19:03;101380.53;;;5.34;100.00
52535;BME280;38443;53.164;5.802;2023-04-28T05:21:29;101365.47;;;5.36;100.00
52535;BME280;38443;53.164;5.802;2023-04-28T05:23:55;101374.31;;;5.38;100.00
52535;BME280;38443;53.164;5.802;2023-04-28T05:26:21;101380.53;;;5.42;100.00
52535;BME280;38443;53.164;5.802;2023-04-28T05:28:46;101368.13;;;5.43;100.00
52535;BME280;38443;53.164;5.802;2023-04-28T05:31:11;101361.94;;;5.47;100.00
52535;BME280;38443;53.164;5.802;2023-04-28T05:33:37;101375.22;;;5.50;100.00
52535;BME280;38443;53.164;5.802;2023-04-28T05:36:02;101374.34;;;5.54;100.00
52535;BME280;38443;53.164;5.802;2023-04-28T05:38:28;101364.59;;;5.53;100.00
52535;BME280;38443;53.164;5.802;2023-04-28T05:40:53;101359.28;;;5.54;100.00
52535;BME280;38443;53.164;5.802;2023-04-28T05:43:18;101352.19;;;5.55;100.00
52535;BME280;38443;53.164;5.802;2023-04-28T05:45:44;101332.75;;;5.56;100.00
52535;BME280;38443;53.164;5.802;2023-04-28T05:48:09;101326.53;;;5.58;100.00
52535;BME280;38443;53.164;5.802;2023-04-28T05:50:35;101334.50;;;5.60;100.00
52535;BME280;38443;53.164;5.802;2023-04-28T05:53:00;101346.91;;;5.64;100.00
52535;BME280;38443;53.164;5.802;2023-04-28T05:55:25;101346.88;;;5.67;100.00
52535;BME280;38443;53.164;5.802;2023-04-28T05:57:52;101350.41;;;5.63;100.00
52535;BME280;38443;53.164;5.802;2023-04-28T06:00:17;101360.16;;;5.64;100.00
52535;BME280;38443;53.164;5.802;2023-04-28T06:02:43;101353.97;;;5.65;100.00
52535;BME280;38443;53.164;5.802;2023-04-28T06:05:08;101352.19;;;5.67;100.00
52535;BME280;38443;53.164;5.802;2023-04-28T06:07:34;101354.88;;;5.66;100.00
52535;BME280;38443;53.164;5.802;2023-04-28T06:09:59;101350.44;;;5.66;100.00
52535;BME280;38443;53.164;5.802;2023-04-28T06:12:24;101346.91;;;5.64;100.00
52535;BME280;38443;53.164;5.802;2023-04-28T06:14:50;101348.69;;;5.64;100.00
52535;BME280;38443;53.164;5.802;2023-04-28T06:17:19;101343.38;;;5.64;100.00
52535;BME280;38443;53.164;5.802;2023-04-28T06:19:44;101346.91;;;5.66;100.00
52535;BME280;38443;53.164;5.802;2023-04-28T06:22:10;101348.66;;;5.71;100.00
52535;BME280;38443;53.164;5.802;2023-04-28T06:24:35;101347.78;;;5.74;100.00
52535;BME280;38443;53.164;5.802;2023-04-28T06:27:00;101349.56;;;5.73;100.00
52535;BME280;38443;53.164;5.802;2023-04-28T06:29:26;101330.06;;;5.71;100.00
52535;BME280;38443;53.164;5.802;2023-04-28T06:31:52;101340.69;;;5.73;100.00
52535;BME280;38443;53.164;5.802;2023-04-28T06:34:22;101335.38;;;5.74;100.00
52535;BME280;38443;53.164;5.802;2023-04-28T06:36:47;101345.13;;;5.75;100.00
52535;BME280;38443;53.164;5.802;2023-04-28T06:39:12;101341.56;;;5.69;100.00
52535;BME280;38443;53.164;5.802;2023-04-28T06:41:38;101341.59;;;5.72;100.00
52535;BME280;38443;53.164;5.802;2023-04-28T06:44:03;101336.25;;;5.72;100.00
52535;BME280;38443;53.164;5.802;2023-04-28T06:46:29;101330.94;;;5.75;100.00
52535;BME280;38443;53.164;5.802;2023-04-28T06:48:55;101326.50;;;5.80;100.00
52535;BME280;38443;53.164;5.802;2023-04-28T06:51:20;101324.75;;;5.82;100.00
52535;BME280;38443;53.164;5.802;2023-04-28T06:53:46;101323.81;;;5.92;100.00
52535;BME280;38443;53.164;5.802;2023-04-28T06:56:11;101313.19;;;5.94;100.00
52535;BME280;38443;53.164;5.802;2023-04-28T06:58:36;101322.94;;;6.03;100.00
52535;BME280;38443;53.164;5.802;2023-04-28T07:01:02;101324.69;;;6.05;100.00
52535;BME280;38443;53.164;5.802;2023-04-28T07:03:28;101323.78;;;6.09;100.00
52535;BME280;38443;53.164;5.802;2023-04-28T07:05:53;101325.59;;;6.06;100.00
52535;BME280;38443;53.164;5.802;2023-04-28T07:08:18;101323.81;;;6.08;100.00
52535;BME280;38443;53.164;5.802;2023-04-28T07:10:43;101314.06;;;6.07;100.00
52535;BME280;38443;53.164;5.802;2023-04-28T07:13:09;101316.72;;;6.08;100.00
52535;BME280;38443;53.164;5.802;2023-04-28T07:15:34;101317.63;;;6.04;100.00
52535;BME280;38443;53.164;5.802;2023-04-28T07:17:59;101321.13;;;6.09;100.00
52535;BME280;38443;53.164;5.802;2023-04-28T07:20:24;101323.84;;;6.02;100.00
52535;BME280;38443;53.164;5.802;2023-04-28T07:22:50;101334.47;;;6.00;100.00
52535;BME280;38443;53.164;5.802;2023-04-28T07:25:15;101332.72;;;5.96;100.00
52535;BME280;38443;53.164;5.802;2023-04-28T07:27:40;101334.50;;;5.95;100.00
52535;BME280;38443;53.164;5.802;2023-04-28T07:30:06;101334.47;;;5.94;100.00
52535;BME280;38443;53.164;5.802;2023-04-28T07:32:31;101340.69;;;5.96;100.00
52535;BME280;38443;53.164;5.802;2023-04-28T07:34:57;101338.00;;;5.94;100.00
52535;BME280;38443;53.164;5.802;2023-04-28T07:37:22;101338.91;;;5.93;100.00
52535;BME280;38443;53.164;5.802;2023-04-28T07:39:47;101330.00;;;5.93;100.00
52535;BME280;38443;53.164;5.802;2023-04-28T07:42:13;101341.53;;;5.92;100.00
52535;BME280;38443;53.164;5.802;2023-04-28T07:44:38;101332.69;;;5.94;100.00
52535;BME280;38443;53.164;5.802;2023-04-28T07:47:03;101330.94;;;5.95;100.00
52535;BME280;38443;53.164;5.802;2023-04-28T07:49:28;101335.34;;;6.02;100.00
52535;BME280;38443;53.164;5.802;2023-04-28T07:51:54;101342.44;;;6.06;100.00
52535;BME280;38443;53.164;5.802;2023-04-28T07:54:20;101328.22;;;6.09;100.00
52535;BME280;38443;53.164;5.802;2023-04-28T07:56:46;101333.53;;;6.16;100.00
52535;BME280;38443;53.164;5.802;2023-04-28T07:59:11;101334.41;;;6.20;100.00
52535;BME280;38443;53.164;5.802;2023-04-28T08:01:37;101337.06;;;6.20;100.00
52535;BME280;38443;53.164;5.802;2023-04-28T08:04:02;101336.16;;;6.23;100.00
52535;BME280;38443;53.164;5.802;2023-04-28T08:06:27;101327.31;;;6.24;100.00
52535;BME280;38443;53.164;5.802;2023-04-28T08:08:53;101316.66;;;6.25;100.00
52535;BME280;38443;53.164;5.802;2023-04-28T08:11:19;101308.69;;;6.28;100.00
52535;BME280;38443;53.164;5.802;2023-04-28T08:13:45;101298.06;;;6.28;100.00
52535;BME280;38443;53.164;5.802;2023-04-28T08:16:11;101296.28;;;6.32;100.00
52535;BME280;38443;53.164;5.802;2023-04-28T08:18:36;101279.41;;;6.37;100.00
52535;BME280;38443;53.164;5.802;2023-04-28T08:21:01;101273.16;;;6.43;100.00
52535;BME280;38443;53.164;5.802;2023-04-28T08:23:26;101271.31;;;6.54;100.00
52535;BME280;38443;53.164;5.802;2023-04-28T08:25:54;101269.50;;;6.66;100.00
52535;BME280;38443;53.164;5.802;2023-04-28T08:28:19;101272.94;;;6.75;100.00
52535;BME280;38443;53.164;5.802;2023-04-28T08:30:45;101282.69;;;6.83;100.00
52535;BME280;38443;53.164;5.802;2023-04-28T08:33:10;101286.19;;;6.86;100.00
52535;BME280;38443;53.164;5.802;2023-04-28T08:35:36;101283.50;;;6.91;100.00
52535;BME280;38443;53.164;5.802;2023-04-28T08:38:01;101285.28;;;6.90;100.00
52535;BME280;38443;53.164;5.802;2023-04-28T08:40:26;101281.72;;;6.93;100.00
52535;BME280;38443;53.164;5.802;2023-04-28T08:42:54;101273.72;;;6.94;100.00
52535;BME280;38443;53.164;5.802;2023-04-28T08:45:19;101271.03;;;6.97;100.00
52535;BME280;38443;53.164;5.802;2023-04-28T08:47:48;101273.69;;;7.01;100.00
52535;BME280;38443;53.164;5.802;2023-04-28T08:50:13;101273.66;;;7.02;100.00
52535;BME280;38443;53.164;5.802;2023-04-28T08:52:41;101270.09;;;7.06;100.00
52535;BME280;38443;53.164;5.802;2023-04-28T08:55:08;101254.88;;;7.22;100.00
52535;BME280;38443;53.164;5.802;2023-04-28T08:57:45;101241.50;;;7.27;100.00
52535;BME280;38443;53.164;5.802;2023-04-28T09:00:13;101235.19;;;7.40;100.00
52535;BME280;38443;53.164;5.802;2023-04-28T09:02:38;101220.88;;;7.47;100.00
52535;BME280;38443;53.164;5.802;2023-04-28T09:05:07;101221.63;;;7.62;100.00
52535;BME280;38443;53.164;5.802;2023-04-28T09:07:33;101208.88;;;7.88;100.00
52535;BME280;38443;53.164;5.802;2023-04-28T09:10:15;101220.19;;;8.09;100.00
52535;BME280;38443;53.164;5.802;2023-04-28T09:12:41;101210.19;;;8.25;100.00
52535;BME280;38443;53.164;5.802;2023-04-28T09:15:06;101214.66;;;8.23;100.00
52535;BME280;38443;53.164;5.802;2023-04-28T09:17:46;101223.44;;;8.29;100.00
52535;BME280;38443;53.164;5.802;2023-04-28T09:20:22;101207.53;;;8.25;100.00
52535;BME280;38443;53.164;5.802;2023-04-28T09:22:48;101204.94;;;8.18;100.00
52535;BME280;38443;53.164;5.802;2023-04-28T09:25:14;101205.63;;;8.34;100.00
52535;BME280;38443;53.164;5.802;2023-04-28T09:27:40;101192.09;;;8.48;100.00
52535;BME280;38443;53.164;5.802;2023-04-28T09:30:06;101182.84;;;8.71;100.00
52535;BME280;38443;53.164;5.802;2023-04-28T09:32:32;101184.00;;;9.09;100.00
52535;BME280;38443;53.164;5.802;2023-04-28T09:34:58;101181.72;;;9.35;100.00
52535;BME280;38443;53.164;5.802;2023-04-28T09:37:27;101191.25;;;9.50;100.00
52535;BME280;38443;53.164;5.802;2023-04-28T09:39:55;101190.22;;;9.57;100.00
52535;BME280;38443;53.164;5.802;2023-04-28T09:45:13;101178.47;;;9.18;100.00
52535;BME280;38443;53.164;5.802;2023-04-28T09:47:41;101174.31;;;9.03;100.00
52535;BME280;38443;53.164;5.802;2023-04-28T09:50:08;101174.38;;;9.00;100.00
52535;BME280;38443;53.164;5.802;2023-04-28T09:52:36;101187.88;;;8.89;100.00
52535;BME280;38443;53.164;5.802;2023-04-28T09:55:02;101185.31;;;8.85;100.00
52535;BME280;38443;53.164;5.802;2023-04-28T09:57:33;101185.06;;;8.98;100.00
52535;BME280;38443;53.164;5.802;2023-04-28T10:00:00;101180.41;;;9.10;100.00
52535;BME280;38443;53.164;5.802;2023-04-28T10:02:27;101186.47;;;9.18;100.00
52535;BME280;38443;53.164;5.802;2023-04-28T10:04:52;101187.25;;;9.26;100.00
52535;BME280;38443;53.164;5.802;2023-04-28T10:07:18;101181.94;;;9.23;100.00
52535;BME280;38443;53.164;5.802;2023-04-28T10:09:48;101174.06;;;9.15;100.00
52535;BME280;38443;53.164;5.802;2023-04-28T10:12:22;101181.22;;;9.15;100.00
52535;BME280;38443;53.164;5.802;2023-04-28T10:14:48;101170.41;;;9.23;100.00
52535;BME280;38443;53.164;5.802;2023-04-28T10:17:20;101175.72;;;9.24;100.00
52535;BME280;38443;53.164;5.802;2023-04-28T10:19:47;101166.91;;;9.19;100.00
52535;BME280;38443;53.164;5.802;2023-04-28T10:25:34;101166.81;;;9.24;100.00
52535;BME280;38443;53.164;5.802;2023-04-28T10:28:03;101171.22;;;9.26;100.00
52535;BME280;38443;53.164;5.802;2023-04-28T10:30:30;101163.16;;;9.28;100.00
52535;BME280;38443;53.164;5.802;2023-04-28T10:42:59;101154.19;;;9.32;100.00
52535;BME280;38443;53.164;5.802;2023-04-28T10:48:08;101147.69;;;9.47;100.00
52535;BME280;38443;53.164;5.802;2023-04-28T10:50:34;101150.09;;;9.59;100.00
52535;BME280;38443;53.164;5.802;2023-04-28T10:53:01;101147.25;;;9.68;100.00
52535;BME280;38443;53.164;5.802;2023-04-28T10:55:31;101149.81;;;9.73;100.00
52535;BME280;38443;53.164;5.802;2023-04-28T11:00:46;101145.38;;;9.72;100.00
52535;BME280;38443;53.164;5.802;2023-04-28T11:08:41;101145.56;;;9.64;100.00
52535;BME280;38443;53.164;5.802;2023-04-28T11:13:35;101134.88;;;9.64;100.00
52535;BME280;38443;53.164;5.802;2023-04-28T11:16:04;101132.09;;;9.69;100.00
52535;BME280;38443;53.164;5.802;2023-04-28T11:18:31;101124.03;;;9.70;100.00
52535;BME280;38443;53.164;5.802;2023-04-28T11:21:07;101120.28;;;9.79;100.00
52535;BME280;38443;53.164;5.802;2023-04-28T11:23:32;101124.53;;;9.88;100.00
52535;BME280;38443;53.164;5.802;2023-04-28T11:25:58;101114.69;;;9.90;100.00
52535;BME280;38443;53.164;5.802;2023-04-28T11:28:23;101120.16;;;9.84;100.00
52535;BME280;38443;53.164;5.802;2023-04-28T11:30:48;101128.22;;;9.82;100.00
52535;BME280;38443;53.164;5.802;2023-04-28T11:33:14;101128.31;;;9.77;100.00
52535;BME280;38443;53.164;5.802;2023-04-28T11:35:40;101130.09;;;9.78;100.00
52535;BME280;38443;53.164;5.802;2023-04-28T11:38:05;101133.56;;;9.82;100.00
52535;BME280;38443;53.164;5.802;2023-04-28T11:40:30;101134.47;;;9.83;100.00
52535;BME280;38443;53.164;5.802;2023-04-28T11:42:56;101131.63;;;9.90;100.00
52535;BME280;38443;53.164;5.802;2023-04-28T11:45:23;101119.75;;;10.02;100.00
52535;BME280;38443;53.164;5.802;2023-04-28T11:47:48;101107.03;;;10.13;100.00
52535;BME280;38443;53.164;5.802;2023-04-28T11:50:14;101092.50;;;10.24;100.00
52535;BME280;38443;53.164;5.802;2023-04-28T11:52:49;101092.38;;;10.28;100.00
52535;BME280;38443;53.164;5.802;2023-04-28T11:55:15;101100.22;;;10.39;100.00
52535;BME280;38443;53.164;5.802;2023-04-28T11:57:41;101094.78;;;10.42;100.00
52535;BME280;38443;53.164;5.802;2023-04-28T12:00:12;101095.53;;;10.49;100.00
52535;BME280;38443;53.164;5.802;2023-04-28T12:02:38;101094.56;;;10.51;100.00
52535;BME280;38443;53.164;5.802;2023-04-28T12:05:04;101095.41;;;10.53;100.00
52535;BME280;38443;53.164;5.802;2023-04-28T12:07:30;101091.81;;;10.54;100.00
52535;BME280;38443;53.164;5.802;2023-04-28T12:10:13;101088.22;;;10.54;100.00
52535;BME280;38443;53.164;5.802;2023-04-28T12:12:40;101085.63;;;10.52;100.00
52535;BME280;38443;53.164;5.802;2023-04-28T12:15:06;101080.22;;;10.54;100.00
52535;BME280;38443;53.164;5.802;2023-04-28T12:17:33;101089.19;;;10.51;100.00
52535;BME280;38443;53.164;5.802;2023-04-28T12:20:02;101082.00;;;10.53;100.00
52535;BME280;38443;53.164;5.802;2023-04-28T12:22:27;101091.16;;;10.45;100.00
52535;BME280;38443;53.164;5.802;2023-04-28T12:25:03;101086.84;;;10.39;100.00
52535;BME280;38443;53.164;5.802;2023-04-28T12:27:28;101091.41;;;10.34;100.00
52535;BME280;38443;53.164;5.802;2023-04-28T12:29:54;101091.47;;;10.32;100.00
52535;BME280;38443;53.164;5.802;2023-04-28T12:32:35;101096.91;;;10.26;100.00
52535;BME280;38443;53.164;5.802;2023-04-28T12:35:01;101098.09;;;10.14;100.00
52535;BME280;38443;53.164;5.802;2023-04-28T12:37:26;101084.00;;;10.06;100.00
52535;BME280;38443;53.164;5.802;2023-04-28T12:39:51;101090.28;;;10.05;100.00
52535;BME280;38443;53.164;5.802;2023-04-28T12:43:05;101102.78;;;10.05;100.00
52535;BME280;38443;53.164;5.802;2023-04-28T12:45:30;101106.47;;;9.99;100.00
52535;BME280;38443;53.164;5.802;2023-04-28T12:47:57;101109.28;;;9.93;100.00
52535;BME280;38443;53.164;5.802;2023-04-28T12:50:22;101117.28;;;9.94;100.00
52535;BME280;38443;53.164;5.802;2023-04-28T12:52:48;101113.75;;;9.92;100.00
52535;BME280;38443;53.164;5.802;2023-04-28T12:55:13;101109.34;;;9.90;100.00
52535;BME280;38443;53.164;5.802;2023-04-28T12:57:39;101110.28;;;9.89;100.00
52535;BME280;38443;53.164;5.802;2023-04-28T13:00:05;101100.47;;;9.88;100.00
52535;BME280;38443;53.164;5.802;2023-04-28T13:02:30;101092.53;;;9.85;100.00
52535;BME280;38443;53.164;5.802;2023-04-28T13:04:56;101103.94;;;9.93;100.00
52535;BME280;38443;53.164;5.802;2023-04-28T13:07:21;101102.09;;;9.95;100.00
52535;BME280;38443;53.164;5.802;2023-04-28T13:09:46;101110.13;;;9.95;100.00
52535;BME280;38443;53.164;5.802;2023-04-28T13:12:12;101111.03;;;9.94;100.00
52535;BME280;38443;53.164;5.802;2023-04-28T13:14:37;101127.84;;;10.01;100.00